« 令和元年度滋賀県総合防災訓練 高島市 2019/9/1 sun | トップページ | 富山駐屯地創立57周年記念行事 2019/9/8 sun »

2019/09/08

令和元年度(第60回)石川県防災総合訓練 野々市市 2019/9/8 sun

秋の防災訓練シーズン。本日は、早朝から石川県へ。

RJNK 072100Z 27003KT 9999 FEW180 24/21 Q1011

20190908_nonoichi_00pc104

金沢港三兄弟

20190908_nonoichi_01msc681

戸水岸壁にMSC681「ひらしま」

20190908_nonoichi_02msc681

海上物資輸送訓練に参加の予定。訓練は見ずに、主会場へ。

20190908_nonoichi_03nonoichi

野々市中央公園が主会場 他に金沢工業大学、野々市小学校との分散開催

20190908_nonoichi_04nonoichi

丁度60回になるそうです。

RJNK 072100Z 27003KT 9999 FEW180 24/21 Q1011

20190908_nonoichi_05nonoichi

緊急交通路確保訓練を行う警察車両

20190908_nonoichi_06nonoichi

救出救助訓練会場では、参加者が下見中

RJNK 072300Z VRB02KT 9999 FEW050 28/21 Q1010

20190908_nonoichi_07nonoichi

多目的広場に本部テントが設営されています。

20190908_nonoichi_08nonoichi

へり発着場となる市民球場では散水中。空自小松気象隊が観測機器設置。

20190908_nonoichi_09ja657j

JAL183 RJTT-RJNK JA657J B767-346ER

上空を小松RW24へのアプローチ機が通過していきます。

20190908_nonoichi_10lxvcf

CLX9425 ELLX-RJNK LX-VCF B747-8R7F

RJNK 080000Z 35005KT 280V050 9999 FEW050 29/21 Q1010

20190908_nonoichi_11ja893f

小松空港を飛び立った石川県防災さんが、会場上空を通過して白山市の場外へ。

20190908_nonoichi_12ja893f

白山市からDMATを乗せて帰ってきました。

20190908_nonoichi_13ja615a

ANA751 RJTT-RJNK JA615A B767-381ER

20190908_nonoichi_14ja893f

南側から慎重にアプローチ

20190908_nonoichi_15ja893f

散水してありますが、砂混じりの水しぶきが飛んできます。

20190908_nonoichi_16ja893f

DMAT降機

20190908_nonoichi_17ja893f

JA893F B412EP 石川県消防防災航空隊

20190908_nonoichi_18ja893f

離脱

20190908_nonoichi_19ja893f

小松空港へ帰投します。

20190908_nonoichi_20hl7560

KAL775 RKSI-RJNK HL7560 B737-8B5

RJNK 080100Z 33006KT 290V360 9999 FEW050 30/22 Q1010

20190908_nonoichi_21dron

ドローンのスピーカーから避難情報のデモ

20190908_nonoichi_22jg

倒壊家屋からの救出救助訓練に陸自第14普通科連隊

20190908_nonoichi_23po

続いて石川県警察緊急援助隊

20190908_nonoichi_24rc

多重衝突事故救出訓練に白山野々市広域消防と緊急消防援助隊石川県大隊の小松消防

RJNK 080200Z 34008KT 9999 FEW050 31/22 Q1010

重症患者航空搬送訓練に石川県ドクターへりが参加する予定でしたが、アクチャルミッションが続いていて、参加取りやめ。

20190908_nonoichi_25h584593

救援物資航空輸送訓練に空自小松救難隊

20190908_nonoichi_26h584593

58-4593 UH-60J KOMATSU-ARS H93

20190908_nonoichi_27h584593

棒付のロクマルさん

20190908_nonoichi_28h584593

慎重に着陸

20190908_nonoichi_29h584593

空自隊員から物資が手渡されます。

20190908_nonoichi_30ms

羽咋救急により搬送されてきた重症者を空自へりで航空搬送します。

20190908_nonoichi_31h584593

担架にのせられた重傷者を慎重にへりに運びます。

20190908_nonoichi_32h584593

収容

20190908_nonoichi_33h584593

すかさず、周辺安全を確認して・・

20190908_nonoichi_34h584593

離陸

20190908_nonoichi_35h584593

小松空港に帰投しました。

###whitewing681さんの動画###

#####

20190908_nonoichi_36nonoichi

訓練が進んでいるのですが、本部テント前広場は、人影まばら

20190908_nonoichi_37ntt

NTTさんのブースを冷やかして・・

20190908_nonoichi_38nonoichi

ようやく県知事視察

20190908_nonoichi_39nonoichi

通信設備をじっくり拝見してから、次の現場へ転戦

|

« 令和元年度滋賀県総合防災訓練 高島市 2019/9/1 sun | トップページ | 富山駐屯地創立57周年記念行事 2019/9/8 sun »

場外」カテゴリの記事

警務消防」カテゴリの記事

陸上自衛隊」カテゴリの記事

海上自衛隊」カテゴリの記事

航空自衛隊」カテゴリの記事

コメント

コメントを書く



(ウェブ上には掲載しません)


コメントは記事投稿者が公開するまで表示されません。



« 令和元年度滋賀県総合防災訓練 高島市 2019/9/1 sun | トップページ | 富山駐屯地創立57周年記念行事 2019/9/8 sun »